Time;durP1;ratioP1;P1;durP2;ratioP2;P2;SDS_P1;SDS_P2;PMS_P1;PMS_P2;Temp;Humidity;BMP_temperature;BMP_pressure;BME280_temperature;BME280_humidity;BME280_pressure;Samples;Min_cycle;Max_cycle;Signal;HPM_P1;HPM_P2
2022/09/27 00:00:07;;;;;;;1.38;1.10;;;18.90;57.50;;;;;;5085951;28;20024;-61
2022/09/27 00:02:33;;;;;;;0.63;0.63;;;18.90;57.50;;;;;;5085912;28;20027;-61
2022/09/27 00:04:58;;;;;;;0.60;0.60;;;18.90;57.50;;;;;;5085880;28;20083;-61
2022/09/27 00:07:27;;;;;;;0.60;0.60;;;18.90;57.50;;;;;;5086405;28;20050;-60
2022/09/27 00:09:53;;;;;;;0.70;0.70;;;18.90;57.50;;;;;;5085732;28;20063;-61
2022/09/27 00:12:19;;;;;;;1.35;1.00;;;18.90;57.50;;;;;;5085741;28;20178;-61
2022/09/27 00:14:44;;;;;;;0.80;0.80;;;18.90;57.50;;;;;;5085707;28;20040;-61
2022/09/27 00:17:10;;;;;;;1.33;1.20;;;18.90;57.50;;;;;;5085484;28;20077;-60
2022/09/27 00:19:36;;;;;;;0.80;0.80;;;18.90;57.50;;;;;;5085593;28;20031;-61
2022/09/27 00:22:02;;;;;;;1.25;1.05;;;18.90;57.60;;;;;;5085566;28;20020;-61
2022/09/27 00:24:28;;;;;;;1.42;0.70;;;18.90;57.50;;;;;;5085474;28;20182;-61
2022/09/27 00:26:54;;;;;;;1.30;1.20;;;18.90;57.50;;;;;;5085433;28;20080;-61
2022/09/27 00:29:20;;;;;;;0.60;0.60;;;18.90;57.60;;;;;;5085339;28;21933;-60
2022/09/27 00:31:46;;;;;;;0.77;0.65;;;18.90;57.50;;;;;;5085356;28;20020;-60
2022/09/27 00:34:24;;;;;;;0.80;0.80;;;18.90;57.60;;;;;;5085309;28;20044;-60
2022/09/27 00:36:50;;;;;;;0.77;0.77;;;18.90;57.50;;;;;;5085288;28;20012;-61
2022/09/27 00:39:16;;;;;;;0.70;0.70;;;18.90;57.60;;;;;;5085764;28;20188;-61
2022/09/27 00:41:43;;;;;;;1.10;0.70;;;18.90;57.60;;;;;;5085142;28;20058;-61
2022/09/27 00:44:24;;;;;;;1.02;0.88;;;18.90;57.60;;;;;;5085057;28;20082;-61
2022/09/27 00:46:53;;;;;;;1.02;0.93;;;18.90;57.60;;;;;;5085022;28;20021;-61
2022/09/27 00:49:40;;;;;;;1.23;0.90;;;18.90;57.60;;;;;;5084916;28;20037;-61
2022/09/27 00:52:24;;;;;;;0.80;0.77;;;18.90;57.60;;;;;;5085258;28;20199;-62
2022/09/27 00:54:56;;;;;;;1.10;0.73;;;18.90;57.60;;;;;;5084911;28;20227;-61
2022/09/27 00:57:22;;;;;;;0.80;0.80;;;18.90;57.60;;;;;;5084829;28;20076;-61
2022/09/27 00:59:58;;;;;;;0.70;0.70;;;18.90;57.70;;;;;;5084367;28;20016;-60
2022/09/27 01:02:23;;;;;;;1.00;0.90;;;18.90;57.60;;;;;;5084769;28;20012;-61
2022/09/27 01:04:49;;;;;;;0.77;0.77;;;18.90;57.60;;;;;;5084685;28;20039;-61
2022/09/27 01:07:15;;;;;;;1.00;0.77;;;18.90;57.60;;;;;;5084592;28;20016;-60
2022/09/27 01:09:41;;;;;;;0.63;0.63;;;18.90;57.60;;;;;;5084507;28;20025;-61
2022/09/27 01:12:28;;;;;;;0.77;0.75;;;18.90;57.60;;;;;;5084746;28;20013;-61
2022/09/27 01:15:07;;;;;;;0.85;0.70;;;18.90;57.70;;;;;;5084500;28;20039;-61
2022/09/27 01:17:45;;;;;;;0.77;0.77;;;18.80;57.60;;;;;;5084285;28;20045;-61
2022/09/27 01:20:30;;;;;;;0.80;0.73;;;18.90;57.70;;;;;;5084435;28;20245;-60
2022/09/27 01:23:01;;;;;;;0.70;0.70;;;18.80;57.60;;;;;;5084363;28;20040;-60
2022/09/27 01:25:45;;;;;;;0.88;0.63;;;18.90;57.70;;;;;;5084279;28;20025;-60
2022/09/27 01:28:31;;;;;;;0.90;0.90;;;18.80;57.60;;;;;;5084266;28;20031;-61
2022/09/27 01:31:15;;;;;;;0.60;0.60;;;18.80;57.70;;;;;;5084348;28;20051;-61
2022/09/27 01:33:53;;;;;;;0.68;0.68;;;18.80;57.70;;;;;;5084145;28;20028;-61
2022/09/27 01:36:53;;;;;;;1.42;1.00;;;18.80;57.60;;;;;;5084369;28;20024;-61
2022/09/27 01:39:49;;;;;;;0.73;0.73;;;18.80;57.70;;;;;;5084050;28;20308;-60
2022/09/27 01:42:18;;;;;;;1.10;1.00;;;18.80;57.70;;;;;;5084015;28;20286;-61
2022/09/27 01:45:04;;;;;;;1.40;1.00;;;18.80;57.60;;;;;;5066091;28;20020;-61
2022/09/27 01:47:46;;;;;;;1.63;0.93;;;18.80;57.60;;;;;;5083905;28;20196;-61
2022/09/27 01:50:20;;;;;;;0.85;0.70;;;18.80;57.70;;;;;;5083791;28;20323;-60
2022/09/27 01:53:01;;;;;;;1.08;0.80;;;18.80;57.60;;;;;;5083863;28;20300;-59
2022/09/27 01:55:32;;;;;;;0.88;0.77;;;18.80;57.70;;;;;;5083793;28;20019;-61
2022/09/27 01:58:21;;;;;;;0.73;0.73;;;18.80;57.70;;;;;;5083762;28;20012;-61
2022/09/27 02:00:50;;;;;;;0.68;0.68;;;18.80;57.60;;;;;;5075507;28;20312;-61
2022/09/27 02:03:40;;;;;;;0.75;0.75;;;18.80;57.70;;;;;;5066105;28;20331;-60
2022/09/27 02:06:23;;;;;;;0.88;0.82;;;18.80;57.70;;;;;;5083645;28;20020;-61
2022/09/27 02:08:55;;;;;;;0.70;0.63;;;18.80;57.70;;;;;;5083639;28;20024;-61
2022/09/27 02:11:21;;;;;;;0.73;0.70;;;18.80;57.70;;;;;;5082763;28;20069;-61
2022/09/27 02:14:16;;;;;;;1.25;1.00;;;18.80;57.60;;;;;;5083571;28;20015;-61
2022/09/27 02:16:53;;;;;;;0.98;0.77;;;18.80;57.70;;;;;;5075042;28;20344;-61
2022/09/27 02:19:44;;;;;;;0.80;0.80;;;18.80;57.70;;;;;;5083521;28;20027;-60
2022/09/27 02:22:19;;;;;;;1.00;0.85;;;18.80;57.70;;;;;;5083473;28;20346;-62
2022/09/27 02:24:55;;;;;;;0.80;0.65;;;18.80;57.70;;;;;;5083456;28;20100;-61
2022/09/27 02:27:44;;;;;;;0.88;0.80;;;18.80;57.70;;;;;;5083476;28;20040;-61
2022/09/27 02:30:11;;;;;;;;;;;18.80;57.70;;;;;;5083789;28;20017;-60
2022/09/27 02:32:38;;;;;;;0.80;0.80;;;18.80;57.70;;;;;;5083439;28;19907;-62
2022/09/27 02:35:26;;;;;;;0.80;0.80;;;18.80;57.60;;;;;;5083373;28;20063;-61
2022/09/27 02:37:53;;;;;;;0.80;0.80;;;18.80;57.60;;;;;;5083386;28;20036;-61
2022/09/27 02:40:19;;;;;;;0.77;0.77;;;18.80;57.60;;;;;;5083311;28;20024;-61
2022/09/27 02:42:45;;;;;;;0.82;0.65;;;18.80;57.70;;;;;;5083287;28;20084;-61
2022/09/27 02:45:14;;;;;;;1.60;0.90;;;18.80;57.70;;;;;;5083293;28;20025;-61
2022/09/27 02:47:40;;;;;;;0.70;0.68;;;18.80;57.70;;;;;;5083521;28;20083;-61
2022/09/27 02:50:32;;;;;;;0.70;0.70;;;18.80;57.70;;;;;;5083192;28;20020;-61
2022/09/27 02:53:07;;;;;;;0.55;0.55;;;18.80;57.70;;;;;;5083425;28;20027;-61
2022/09/27 02:56:04;;;;;;;1.17;1.00;;;18.80;57.70;;;;;;5083184;28;20021;-61
2022/09/27 02:58:41;;;;;;;0.73;0.73;;;18.80;57.70;;;;;;5083137;28;20031;-61
2022/09/27 03:01:57;;;;;;;0.82;0.77;;;18.80;57.70;;;;;;5083186;28;20212;-61
2022/09/27 03:04:34;;;;;;;0.70;0.63;;;18.80;58.30;;;;;;5061704;28;20028;-61
2022/09/27 03:07:01;;;;;;;0.80;0.70;;;18.80;57.70;;;;;;5083128;28;20335;-61
2022/09/27 03:09:43;;;;;;;1.02;0.88;;;18.80;57.70;;;;;;5082956;28;20330;-61
2022/09/27 03:12:10;;;;;;;0.82;0.77;;;18.80;57.70;;;;;;5083075;28;20021;-61
2022/09/27 03:14:35;;;;;;;0.88;0.85;;;18.80;57.70;;;;;;5082966;28;20063;-61
2022/09/27 03:17:01;;;;;;;1.30;1.02;;;18.80;57.60;;;;;;5082781;28;20267;-61
2022/09/27 03:19:27;;;;;;;1.73;1.00;;;18.80;57.70;;;;;;5082961;28;20028;-61
2022/09/27 03:21:52;;;;;;;0.95;0.90;;;18.80;57.70;;;;;;5082944;28;20025;-60
2022/09/27 03:24:19;;;;;;;0.85;0.70;;;18.80;57.70;;;;;;5086442;28;20049;-60
2022/09/27 03:26:45;;;;;;;0.77;0.75;;;18.80;57.70;;;;;;5086821;28;20017;-60
2022/09/27 03:29:11;;;;;;;0.80;0.75;;;18.80;57.70;;;;;;5086464;28;20016;-61
2022/09/27 03:31:37;;;;;;;2.28;1.40;;;18.80;57.70;;;;;;5086515;28;20066;-61
2022/09/27 03:34:03;;;;;;;0.80;0.80;;;18.80;57.70;;;;;;5086412;28;20241;-62
2022/09/27 03:36:28;;;;;;;1.27;0.90;;;18.70;57.70;;;;;;5086401;28;20016;-61
2022/09/27 03:38:54;;;;;;;0.80;0.80;;;18.80;57.80;;;;;;5086925;28;20071;-60
2022/09/27 03:41:20;;;;;;;0.60;0.60;;;18.80;57.80;;;;;;5086261;28;20020;-60
2022/09/27 03:43:46;;;;;;;0.98;0.90;;;18.80;57.80;;;;;;5086255;28;20079;-61
2022/09/27 03:46:12;;;;;;;0.52;0.52;;;18.80;57.80;;;;;;5086181;28;20028;-60
2022/09/27 03:48:37;;;;;;;0.90;0.90;;;18.70;57.70;;;;;;5086147;28;20028;-60
2022/09/27 03:51:03;;;;;;;0.82;0.73;;;18.70;57.70;;;;;;5086065;28;20087;-62
2022/09/27 03:53:29;;;;;;;1.10;1.00;;;18.70;57.70;;;;;;5086097;28;20044;-61
2022/09/27 03:55:56;;;;;;;0.80;0.80;;;18.70;57.70;;;;;;5086046;28;20062;-61
2022/09/27 03:58:21;;;;;;;1.25;1.00;;;18.80;57.80;;;;;;5085999;28;20016;-62
2022/09/27 04:00:47;;;;;;;0.93;0.85;;;18.70;57.70;;;;;;5085948;28;20025;-61
2022/09/27 04:03:13;;;;;;;1.00;0.90;;;18.80;57.80;;;;;;5085902;28;20027;-61
2022/09/27 04:05:39;;;;;;;0.70;0.70;;;18.70;57.70;;;;;;5085872;28;20040;-61
2022/09/27 04:08:06;;;;;;;0.73;0.73;;;18.70;57.80;;;;;;5085781;28;20048;-61
2022/09/27 04:10:32;;;;;;;0.65;0.65;;;18.70;57.80;;;;;;5085662;28;20013;-61
2022/09/27 04:12:58;;;;;;;0.95;0.95;;;18.70;57.70;;;;;;5067777;28;20070;-61
2022/09/27 04:15:23;;;;;;;1.00;0.90;;;18.70;57.70;;;;;;5085642;28;20017;-60
2022/09/27 04:17:50;;;;;;;1.08;0.98;;;18.70;57.70;;;;;;5085396;28;20155;-61
2022/09/27 04:20:17;;;;;;;0.80;0.80;;;18.70;57.70;;;;;;5085551;28;20032;-60
2022/09/27 04:22:44;;;;;;;1.00;0.90;;;18.70;57.70;;;;;;5067678;28;20259;-61
2022/09/27 04:25:11;;;;;;;0.75;0.60;;;18.70;57.70;;;;;;5085691;28;20319;-60
2022/09/27 04:27:37;;;;;;;0.98;0.93;;;18.80;57.80;;;;;;5085437;28;20261;-61
2022/09/27 04:30:05;;;;;;;0.90;0.80;;;18.70;57.60;;;;;;5085306;28;20017;-61
2022/09/27 04:32:31;;;;;;;1.42;0.93;;;18.70;57.70;;;;;;5085338;28;20209;-61
2022/09/27 04:37:42;;;;;;;0.80;0.75;;;18.70;57.70;;;;;;5085319;28;20208;-61
2022/09/27 04:40:08;;;;;;;1.00;0.80;;;18.70;57.70;;;;;;5085182;28;20021;-61
2022/09/27 04:42:34;;;;;;;0.80;0.80;;;18.70;57.70;;;;;;5085150;28;20021;-61
2022/09/27 04:45:00;;;;;;;1.15;0.90;;;18.70;57.70;;;;;;5085077;28;20026;-60
2022/09/27 04:47:25;;;;;;;0.90;0.73;;;18.70;57.70;;;;;;5085046;28;20031;-60
2022/09/27 04:49:51;;;;;;;1.10;1.00;;;18.70;57.70;;;;;;5084915;28;20020;-61
2022/09/27 04:52:17;;;;;;;1.33;1.10;;;18.70;57.70;;;;;;5084979;28;20079;-61
2022/09/27 04:54:43;;;;;;;1.25;1.10;;;18.70;57.70;;;;;;5084859;28;20008;-61
2022/09/27 04:57:08;;;;;;;1.00;0.90;;;18.80;57.70;;;;;;5084842;28;20044;-61
2022/09/27 04:59:34;;;;;;;0.88;0.80;;;18.70;57.60;;;;;;5084802;28;20020;-61
2022/09/27 05:02:00;;;;;;;0.60;0.60;;;18.70;57.60;;;;;;5084781;28;20032;-61
2022/09/27 05:04:26;;;;;;;1.10;1.00;;;18.70;58.30;;;;;;5084645;28;20100;-61
2022/09/27 05:06:52;;;;;;;0.77;0.77;;;18.70;57.70;;;;;;5084644;28;20024;-61
2022/09/27 05:09:18;;;;;;;0.60;0.60;;;18.70;57.70;;;;;;5084509;28;20016;-61
2022/09/27 05:11:44;;;;;;;0.68;0.65;;;18.70;57.60;;;;;;5084589;28;20016;-61
2022/09/27 05:14:10;;;;;;;0.63;0.63;;;18.70;57.60;;;;;;5084546;28;20055;-61
2022/09/27 05:16:36;;;;;;;0.93;0.80;;;18.70;58.20;;;;;;5084271;28;20060;-61
2022/09/27 05:19:02;;;;;;;0.65;0.65;;;18.70;57.60;;;;;;5084458;28;20017;-60
2022/09/27 05:21:30;;;;;;;0.73;0.70;;;18.70;57.60;;;;;;5084343;28;20213;-60
2022/09/27 05:23:56;;;;;;;0.63;0.63;;;18.70;57.60;;;;;;5084298;28;20016;-63
2022/09/27 05:26:22;;;;;;;0.77;0.77;;;18.70;57.60;;;;;;5084251;28;20028;-61
2022/09/27 05:28:47;;;;;;;0.73;0.73;;;18.70;57.60;;;;;;5084222;28;20194;-62
2022/09/27 05:31:13;;;;;;;0.90;0.80;;;18.70;57.60;;;;;;5084092;28;20027;-60
2022/09/27 05:33:40;;;;;;;1.08;0.90;;;18.70;57.60;;;;;;5084123;28;20016;-61
2022/09/27 05:36:07;;;;;;;0.60;0.60;;;18.80;57.60;;;;;;5084063;28;20027;-60
2022/09/27 05:38:34;;;;;;;1.20;1.10;;;18.70;57.60;;;;;;5084088;28;20012;-61
2022/09/27 05:40:59;;;;;;;0.85;0.82;;;18.70;57.60;;;;;;5083983;28;20055;-60
2022/09/27 05:43:27;;;;;;;1.17;1.08;;;18.70;57.60;;;;;;5083935;28;20019;-60
2022/09/27 05:45:53;;;;;;;1.08;0.63;;;18.80;57.60;;;;;;5083848;28;20020;-61
2022/09/27 05:48:19;;;;;;;0.98;0.90;;;18.70;57.50;;;;;;5083856;28;20378;-61
2022/09/27 05:50:45;;;;;;;1.05;0.80;;;18.70;57.50;;;;;;5083765;28;20028;-61
2022/09/27 05:53:12;;;;;;;0.93;0.70;;;18.80;57.60;;;;;;5083798;28;20244;-61
2022/09/27 05:55:37;;;;;;;0.60;0.60;;;18.80;57.50;;;;;;5083760;28;20023;-61
2022/09/27 05:58:05;;;;;;;0.70;0.70;;;18.80;57.50;;;;;;5065875;28;20121;-61
2022/09/27 06:00:32;;;;;;;1.17;1.08;;;18.70;57.50;;;;;;5083710;28;20231;-61
2022/09/27 06:03:03;;;;;;;0.80;0.80;;;18.70;57.50;;;;;;5065781;28;20324;-61
2022/09/27 06:05:33;;;;;;;0.80;0.80;;;18.80;57.50;;;;;;5083678;28;20048;-61
2022/09/27 06:08:04;;;;;;;0.85;0.80;;;18.80;57.50;;;;;;5083644;28;20016;-60
2022/09/27 06:10:31;;;;;;;0.90;0.90;;;18.80;57.50;;;;;;5083515;28;20035;-61
2022/09/27 06:13:11;;;;;;;0.68;0.68;;;18.80;57.50;;;;;;5083528;28;20058;-61
2022/09/27 06:15:38;;;;;;;0.75;0.75;;;18.80;57.40;;;;;;5083553;28;20062;-61
2022/09/27 06:18:08;;;;;;;0.73;0.70;;;18.80;57.40;;;;;;5083380;28;20048;-61
2022/09/27 06:20:34;;;;;;;0.68;0.68;;;18.80;57.40;;;;;;5083758;28;20059;-60
2022/09/27 06:23:08;;;;;;;0.60;0.60;;;18.80;57.50;;;;;;5083500;28;20016;-61
2022/09/27 06:25:35;;;;;;;1.10;1.00;;;18.80;57.40;;;;;;5083500;28;20181;-62
2022/09/27 06:28:02;;;;;;;0.88;0.82;;;18.80;57.40;;;;;;5083424;28;20083;-61
2022/09/27 06:30:28;;;;;;;1.08;0.90;;;18.80;57.50;;;;;;5083325;28;20247;-61
2022/09/27 06:33:01;;;;;;;0.98;0.88;;;18.80;57.50;;;;;;5083360;28;20371;-60
2022/09/27 06:35:29;;;;;;;0.50;0.50;;;18.80;57.50;;;;;;5083353;28;20025;-61
2022/09/27 06:37:56;;;;;;;1.02;0.90;;;18.80;57.50;;;;;;5083374;28;20013;-61
2022/09/27 06:40:25;;;;;;;1.10;0.95;;;18.80;57.40;;;;;;5083338;28;20212;-60
2022/09/27 06:42:51;;;;;;;1.10;0.80;;;18.80;57.40;;;;;;5083297;28;20085;-61
2022/09/27 06:45:17;;;;;;;1.00;0.90;;;18.80;57.40;;;;;;5083298;28;20032;-61
2022/09/27 06:47:43;;;;;;;0.85;0.80;;;18.80;57.30;;;;;;5065399;28;20331;-61
2022/09/27 06:50:11;;;;;;;0.90;0.90;;;18.80;57.30;;;;;;5083168;28;20025;-61
2022/09/27 06:52:37;;;;;;;1.05;0.90;;;18.80;57.40;;;;;;5083219;28;20115;-61
2022/09/27 06:55:03;;;;;;;1.33;1.10;;;18.80;57.40;;;;;;5083183;28;20028;-60
2022/09/27 07:00:25;;;;;;;0.70;0.70;;;18.80;57.30;;;;;;5087156;28;20074;-60
2022/09/27 07:02:52;;;;;;;0.70;0.70;;;18.90;57.30;;;;;;5087127;28;20020;-62
2022/09/27 07:05:18;;;;;;;0.85;0.73;;;18.90;57.30;;;;;;5087013;28;20028;-59
2022/09/27 07:07:46;;;;;;;1.27;0.95;;;18.90;57.30;;;;;;5087273;28;20080;-60
2022/09/27 07:10:11;;;;;;;0.80;0.80;;;18.90;57.20;;;;;;5086860;28;20065;-60
2022/09/27 07:12:37;;;;;;;0.63;0.63;;;18.90;57.20;;;;;;5086896;28;20020;-60
2022/09/27 07:15:05;;;;;;;0.77;0.77;;;18.90;57.20;;;;;;5086824;28;20047;-60
2022/09/27 07:17:31;;;;;;;1.33;1.13;;;18.90;57.20;;;;;;5086703;28;20041;-61
2022/09/27 07:19:57;;;;;;;0.73;0.70;;;18.90;57.10;;;;;;5086704;28;20027;-60
2022/09/27 07:22:23;;;;;;;1.10;0.90;;;18.90;57.10;;;;;;5086683;28;20024;-60
2022/09/27 07:24:49;;;;;;;0.73;0.73;;;18.90;57.10;;;;;;5086635;28;20024;-60
2022/09/27 07:27:14;;;;;;;0.95;0.93;;;18.90;57.20;;;;;;5086527;28;20065;-64
2022/09/27 07:29:40;;;;;;;0.93;0.88;;;18.90;57.20;;;;;;5086741;28;20054;-60
2022/09/27 07:32:06;;;;;;;0.88;0.80;;;18.90;57.30;;;;;;5086478;28;20212;-60
2022/09/27 07:34:32;;;;;;;0.98;0.82;;;18.90;57.30;;;;;;5086468;28;20362;-60
2022/09/27 07:37:00;;;;;;;1.15;1.05;;;18.90;57.30;;;;;;5086392;28;20016;-61
2022/09/27 07:39:26;;;;;;;0.82;0.75;;;18.90;57.40;;;;;;5086314;28;20022;-61
2022/09/27 07:41:52;;;;;;;0.80;0.80;;;18.90;57.40;;;;;;5086335;28;20016;-60
2022/09/27 07:44:18;;;;;;;0.70;0.70;;;18.90;57.30;;;;;;5086289;28;20036;-61
2022/09/27 07:46:44;;;;;;;0.75;0.75;;;18.90;57.30;;;;;;5086239;28;20020;-61
2022/09/27 07:49:09;;;;;;;0.75;0.73;;;18.90;57.30;;;;;;5086161;28;20080;-61
2022/09/27 07:51:35;;;;;;;1.15;0.90;;;18.90;57.30;;;;;;5086065;28;20069;-61
2022/09/27 07:54:01;;;;;;;0.82;0.80;;;18.90;57.20;;;;;;5086160;28;20016;-61
2022/09/27 07:56:27;;;;;;;0.90;0.90;;;18.90;57.20;;;;;;5086076;28;20020;-60
2022/09/27 07:58:53;;;;;;;1.10;0.98;;;18.90;57.20;;;;;;5086038;28;20334;-61
2022/09/27 08:01:19;;;;;;;1.17;1.08;;;19.00;57.20;;;;;;5086007;28;20066;-61
2022/09/27 08:03:45;;;;;;;0.93;0.85;;;19.00;57.20;;;;;;5085927;28;20399;-61
2022/09/27 08:06:11;;;;;;;0.88;0.82;;;19.00;57.10;;;;;;5085897;28;20029;-61
2022/09/27 08:08:37;;;;;;;0.90;0.90;;;19.00;57.10;;;;;;5085067;28;20016;-61
2022/09/27 08:11:17;;;;;;;0.80;0.70;;;19.00;57.10;;;;;;5085301;28;20455;-62
2022/09/27 08:13:43;;;;;;;0.65;0.60;;;19.00;57.00;;;;;;5085842;28;20083;-61
2022/09/27 08:16:10;;;;;;;0.77;0.77;;;19.00;57.00;;;;;;5085609;28;20017;-61
2022/09/27 08:18:36;;;;;;;1.17;1.08;;;19.00;57.10;;;;;;5085873;28;20030;-60
2022/09/27 08:21:03;;;;;;;0.80;0.80;;;19.00;57.10;;;;;;5085912;28;20020;-61
2022/09/27 08:23:29;;;;;;;1.02;0.93;;;19.00;57.10;;;;;;5085584;28;20052;-61
2022/09/27 08:25:58;;;;;;;0.70;0.70;;;19.00;57.30;;;;;;5085557;28;20027;-61
2022/09/27 08:28:25;;;;;;;1.00;0.90;;;19.00;57.40;;;;;;5085511;28;20076;-60
2022/09/27 08:30:51;;;;;;;0.68;0.68;;;19.00;57.30;;;;;;5085399;28;20016;-61
2022/09/27 08:33:17;;;;;;;0.73;0.73;;;19.00;57.30;;;;;;5085358;28;20017;-61
2022/09/27 08:35:42;;;;;;;1.38;1.02;;;19.00;57.30;;;;;;5085371;28;20020;-61
2022/09/27 08:38:10;;;;;;;0.60;0.60;;;19.00;57.30;;;;;;5085300;28;20021;-62
2022/09/27 08:41:03;;;;;;;1.00;0.80;;;19.00;57.30;;;;;;5085226;28;20020;-61
2022/09/27 08:44:06;;;;;;;1.48;1.17;;;19.00;57.40;;;;;;5085192;28;20209;-61
2022/09/27 08:46:40;;;;;;;1.10;1.00;;;19.00;57.30;;;;;;5075872;28;20044;-60
2022/09/27 08:49:13;;;;;;;1.08;0.98;;;19.00;57.30;;;;;;5085093;28;20308;-61
2022/09/27 08:51:40;;;;;;;1.10;0.95;;;19.00;57.30;;;;;;5084986;28;20012;-62
2022/09/27 08:54:18;;;;;;;1.00;0.95;;;19.00;57.30;;;;;;5084977;28;20013;-62
2022/09/27 08:56:46;;;;;;;1.17;1.00;;;19.00;57.40;;;;;;5084998;28;20186;-62
2022/09/27 08:59:19;;;;;;;1.20;1.10;;;19.00;57.40;;;;;;5084901;28;20052;-61
2022/09/27 09:01:45;;;;;;;1.23;1.08;;;19.00;57.50;;;;;;5084845;28;20024;-61
2022/09/27 09:04:28;;;;;;;0.88;0.88;;;19.00;57.50;;;;;;5084736;28;20044;-61
2022/09/27 09:07:03;;;;;;;0.90;0.90;;;19.00;57.40;;;;;;5084722;28;20016;-61
2022/09/27 09:09:55;;;;;;;1.35;1.20;;;19.00;57.40;;;;;;5084541;28;20017;-63
2022/09/27 09:12:47;;;;;;;1.15;0.80;;;19.00;57.50;;;;;;5084640;28;20020;-60
2022/09/27 09:15:53;;;;;;;1.23;0.85;;;19.00;57.50;;;;;;5084544;28;20328;-61
2022/09/27 09:18:30;;;;;;;0.80;0.80;;;19.00;57.30;;;;;;5084366;28;20053;-60
2022/09/27 09:21:08;;;;;;;1.50;0.83;;;19.00;57.40;;;;;;5084461;28;20142;-61
2022/09/27 09:23:56;;;;;;;1.13;1.03;;;19.00;57.40;;;;;;5084400;28;20031;-61
2022/09/27 09:26:27;;;;;;;1.10;1.00;;;19.00;57.40;;;;;;5084362;28;20017;-61
2022/09/27 09:28:56;;;;;;;1.48;1.13;;;19.00;57.50;;;;;;5084326;28;20027;-61
2022/09/27 09:31:40;;;;;;;1.40;1.20;;;19.00;57.50;;;;;;5084179;28;20028;-61
2022/09/27 09:34:09;;;;;;;1.02;0.93;;;18.90;57.50;;;;;;5084157;28;20077;-61
2022/09/27 09:36:46;;;;;;;1.13;0.95;;;18.90;57.40;;;;;;5084120;28;20347;-61
2022/09/27 09:39:37;;;;;;;0.90;0.82;;;18.90;57.40;;;;;;5084422;28;20082;-61
2022/09/27 09:42:08;;;;;;;0.80;0.80;;;19.00;57.50;;;;;;5084081;28;20016;-60
2022/09/27 09:44:45;;;;;;;0.90;0.70;;;19.00;57.40;;;;;;5084331;28;20013;-60
2022/09/27 09:47:20;;;;;;;1.08;0.98;;;19.00;57.40;;;;;;5083965;28;20041;-61
2022/09/27 09:49:53;;;;;;;0.98;0.90;;;19.00;57.40;;;;;;5083784;28;20305;-61
2022/09/27 09:52:23;;;;;;;0.85;0.82;;;19.00;57.50;;;;;;5083931;28;20159;-61
2022/09/27 09:55:03;;;;;;;1.17;0.98;;;19.00;57.50;;;;;;5083841;28;20032;-61
2022/09/27 09:58:05;;;;;;;1.35;1.25;;;18.90;57.50;;;;;;5083832;28;20013;-61
2022/09/27 10:00:31;;;;;;;1.00;0.80;;;18.90;57.50;;;;;;5083805;28;20021;-61
2022/09/27 10:02:59;;;;;;;0.80;0.80;;;18.90;57.60;;;;;;5083734;28;20419;-61
2022/09/27 10:05:26;;;;;;;0.70;0.70;;;18.90;57.60;;;;;;5083690;28;20024;-61
2022/09/27 10:07:56;;;;;;;0.97;0.90;;;18.90;57.60;;;;;;5083995;28;20017;-61
2022/09/27 10:10:22;;;;;;;0.75;0.75;;;18.90;57.50;;;;;;5083576;28;20308;-60
2022/09/27 10:12:49;;;;;;;0.80;0.80;;;18.90;57.60;;;;;;5083972;28;20022;-60
2022/09/27 10:15:21;;;;;;;1.20;0.98;;;18.90;57.60;;;;;;5083606;28;20254;-61
2022/09/27 10:17:57;;;;;;;1.05;0.95;;;18.90;57.60;;;;;;5083298;28;20318;-60
2022/09/27 10:20:34;;;;;;;0.80;0.80;;;18.90;57.50;;;;;;5083581;28;20032;-61
2022/09/27 10:23:12;;;;;;;0.90;0.90;;;18.90;57.60;;;;;;5083827;28;20021;-61
2022/09/27 10:25:56;;;;;;;0.70;0.65;;;18.90;57.60;;;;;;5083502;28;20324;-61
2022/09/27 10:28:44;;;;;;;1.13;1.00;;;18.90;57.60;;;;;;5083705;28;20020;-61
2022/09/27 10:31:16;;;;;;;1.23;1.13;;;18.90;57.50;;;;;;5083416;28;20043;-60
2022/09/27 10:33:54;;;;;;;0.95;0.90;;;18.90;57.50;;;;;;5083013;28;20024;-61
2022/09/27 10:36:34;;;;;;;1.13;1.02;;;19.00;57.50;;;;;;5083416;28;20017;-60
2022/09/27 10:39:04;;;;;;;1.00;0.90;;;18.90;57.40;;;;;;5083406;28;20025;-60
2022/09/27 10:41:37;;;;;;;1.00;0.90;;;19.00;57.50;;;;;;5083329;28;20040;-60
2022/09/27 10:44:31;;;;;;;0.98;0.70;;;19.00;57.60;;;;;;5083379;28;20263;-61
2022/09/27 10:47:22;;;;;;;1.05;0.98;;;18.90;57.60;;;;;;5081520;28;20383;-61
2022/09/27 10:49:52;;;;;;;0.95;0.93;;;18.90;57.50;;;;;;5076134;28;20036;-61
2022/09/27 10:52:22;;;;;;;1.00;0.90;;;18.90;57.50;;;;;;5083241;28;20020;-61
2022/09/27 10:55:03;;;;;;;0.70;0.70;;;19.00;57.50;;;;;;5083227;28;20016;-61
2022/09/27 10:57:30;;;;;;;0.80;0.80;;;19.00;57.50;;;;;;5083217;28;20050;-61
2022/09/27 10:59:58;;;;;;;0.60;0.60;;;19.00;57.50;;;;;;5083133;28;20078;-60
2022/09/27 11:02:31;;;;;;;;;;;18.90;57.50;;;;;;5083560;28;20017;-61
2022/09/27 11:05:12;;;;;;;1.17;0.90;;;18.90;57.50;;;;;;5083072;28;20184;-61
2022/09/27 11:07:54;;;;;;;1.10;1.00;;;18.90;57.50;;;;;;5083071;28;20028;-60
2022/09/27 11:10:22;;;;;;;1.23;1.00;;;19.00;57.50;;;;;;5082899;28;20075;-60
2022/09/27 11:13:07;;;;;;;0.90;0.90;;;19.00;57.50;;;;;;5083035;28;20017;-61
2022/09/27 11:15:44;;;;;;;0.82;0.82;;;19.00;57.40;;;;;;5083039;28;20054;-61
2022/09/27 11:18:19;;;;;;;1.00;0.90;;;19.00;57.50;;;;;;5082892;28;20044;-61
2022/09/27 11:21:04;;;;;;;0.93;0.85;;;19.00;57.50;;;;;;5082983;28;20035;-62
2022/09/27 11:23:59;;;;;;;0.95;0.70;;;19.00;57.50;;;;;;5082941;28;20035;-61
2022/09/27 11:26:47;;;;;;;1.00;0.70;;;19.00;57.50;;;;;;5082949;28;20016;-61
2022/09/27 11:29:21;;;;;;;0.82;0.77;;;18.90;57.40;;;;;;5082909;28;20016;-61
2022/09/27 11:32:15;;;;;;;0.80;0.80;;;18.90;57.40;;;;;;5082891;28;20212;-61
2022/09/27 11:34:53;;;;;;;0.70;0.70;;;19.00;57.50;;;;;;5082850;28;20053;-61
2022/09/27 11:37:47;;;;;;;1.03;0.90;;;18.90;57.50;;;;;;5082783;28;20055;-61
2022/09/27 11:40:31;;;;;;;0.70;0.70;;;18.90;58.10;;;;;;5082425;28;20021;-61
2022/09/27 11:43:03;;;;;;;1.00;1.00;;;18.90;57.50;;;;;;5082713;28;20062;-61
2022/09/27 11:45:47;;;;;;;1.10;1.00;;;18.90;57.50;;;;;;5086292;28;20084;-62
2022/09/27 11:48:32;;;;;;;1.00;0.90;;;18.90;57.60;;;;;;5086255;28;20020;-61
2022/09/27 11:51:12;;;;;;;0.80;0.80;;;18.90;57.60;;;;;;5086042;28;20021;-60
2022/09/27 11:54:00;;;;;;;0.60;0.60;;;18.90;57.60;;;;;;5086156;28;20008;-61
2022/09/27 11:56:45;;;;;;;1.00;0.90;;;18.90;57.50;;;;;;5086078;28;20013;-60
2022/09/27 11:59:38;;;;;;;0.80;0.77;;;19.00;57.50;;;;;;5086069;28;20016;-61
2022/09/27 12:02:31;;;;;;;0.77;0.77;;;19.00;57.50;;;;;;5085991;28;20054;-61
2022/09/27 12:04:56;;;;;;;0.68;0.68;;;19.00;57.30;;;;;;5085948;28;20017;-60
2022/09/27 12:07:34;;;;;;;0.85;0.82;;;19.10;57.30;;;;;;5086202;28;20026;-60
2022/09/27 12:10:10;;;;;;;0.70;0.70;;;19.10;57.20;;;;;;5085810;28;20088;-60
2022/09/27 12:12:40;;;;;;;0.85;0.80;;;19.10;57.10;;;;;;5085855;28;20043;-61
2022/09/27 12:15:32;;;;;;;0.75;0.75;;;19.10;57.20;;;;;;5085777;28;20075;-60
2022/09/27 12:18:19;;;;;;;0.98;0.80;;;19.10;57.20;;;;;;5085157;28;20068;-62
2022/09/27 12:20:45;;;;;;;0.60;0.60;;;19.10;57.30;;;;;;5075162;28;20070;-60
2022/09/27 12:23:27;;;;;;;1.15;1.05;;;19.10;57.20;;;;;;5085591;28;20020;-61
2022/09/27 12:25:58;;;;;;;0.93;0.90;;;19.10;57.20;;;;;;5085597;28;20012;-61
2022/09/27 12:28:39;;;;;;;1.10;0.73;;;19.10;57.10;;;;;;5085553;28;20023;-61
2022/09/27 12:31:32;;;;;;;0.90;0.80;;;19.20;57.10;;;;;;5085409;28;20013;-61
2022/09/27 12:34:29;;;;;;;0.82;0.82;;;19.20;57.00;;;;;;5077105;28;20258;-61
2022/09/27 12:37:01;;;;;;;0.68;0.68;;;19.10;57.00;;;;;;5066437;28;20220;-60
2022/09/27 12:39:42;;;;;;;0.85;0.85;;;19.10;57.20;;;;;;5085280;28;20012;-61
2022/09/27 12:42:37;;;;;;;1.27;1.17;;;19.10;57.20;;;;;;5085220;28;20062;-61
2022/09/27 12:45:04;;;;;;;0.88;0.77;;;19.10;57.30;;;;;;5085206;28;20063;-61
2022/09/27 12:47:32;;;;;;;0.90;0.80;;;19.00;57.40;;;;;;5085353;28;20016;-61
2022/09/27 12:50:23;;;;;;;1.08;0.98;;;19.00;57.50;;;;;;5084995;28;20040;-61
2022/09/27 12:52:58;;;;;;;0.70;0.68;;;19.00;57.50;;;;;;5085060;28;20028;-62
2022/09/27 12:55:34;;;;;;;0.77;0.77;;;19.00;57.50;;;;;;5084326;28;20028;-61
2022/09/27 12:58:08;;;;;;;0.98;0.85;;;19.00;57.50;;;;;;5084934;28;20043;-61
2022/09/27 13:01:02;;;;;;;0.95;0.95;;;19.00;57.40;;;;;;5084835;28;20020;-61
2022/09/27 13:04:12;;;;;;;0.80;0.80;;;19.00;57.40;;;;;;5084814;28;20029;-62
2022/09/27 13:06:50;;;;;;;2.17;1.13;;;19.00;57.40;;;;;;5069265;28;20033;-61
2022/09/27 13:09:27;;;;;;;1.00;0.90;;;19.00;57.50;;;;;;5084646;28;20088;-60
2022/09/27 13:11:56;;;;;;;0.70;0.70;;;19.00;57.50;;;;;;5084658;28;20039;-60
2022/09/27 13:14:26;;;;;;;0.95;0.90;;;19.00;57.50;;;;;;5084511;28;20016;-61
2022/09/27 13:16:52;;;;;;;0.80;0.80;;;19.00;57.50;;;;;;5084327;28;20040;-61
2022/09/27 13:19:44;;;;;;;0.68;0.68;;;19.00;57.50;;;;;;5084507;28;20034;-61
2022/09/27 13:22:35;;;;;;;0.70;0.70;;;19.00;57.50;;;;;;5084421;28;20100;-60